createdAt,value
2022-12-23T00:01:31.367Z,13.53
2022-12-23T00:04:00.035Z,13.93
2022-12-23T00:06:27.980Z,13.67
2022-12-23T00:08:58.603Z,13.51
2022-12-23T00:11:28.715Z,13.55
2022-12-23T00:14:20.922Z,13.47
2022-12-23T00:16:51.165Z,13.79
2022-12-23T00:19:18.862Z,13.78
2022-12-23T00:21:46.876Z,13.64
2022-12-23T00:24:14.233Z,13.88
2022-12-23T00:26:41.480Z,13.93
2022-12-23T00:29:08.777Z,13.36
2022-12-23T00:31:40.436Z,13.97
2022-12-23T00:34:07.815Z,13.80
2022-12-23T00:36:37.497Z,13.69
2022-12-23T00:39:23.553Z,13.48
2022-12-23T00:42:09.908Z,13.58
2022-12-23T00:44:37.216Z,13.53
2022-12-23T00:47:04.655Z,13.56
2022-12-23T00:49:44.230Z,13.44
2022-12-23T00:52:18.158Z,13.80
2022-12-23T00:54:45.420Z,14.20
2022-12-23T00:57:12.791Z,13.78
2022-12-23T00:59:40.224Z,13.72
2022-12-23T01:02:28.050Z,13.90
2022-12-23T01:05:14.192Z,13.94
2022-12-23T01:07:42.553Z,13.99
2022-12-23T01:10:10.636Z,14.21
2022-12-23T01:12:38.026Z,14.13
2022-12-23T01:15:06.597Z,14.29
2022-12-23T01:17:33.835Z,14.29
2022-12-23T01:20:01.191Z,14.40
2022-12-23T01:22:28.825Z,14.30
2022-12-23T01:24:56.497Z,13.90
2022-12-23T01:27:23.881Z,14.09
2022-12-23T01:29:51.291Z,14.51
2022-12-23T01:32:18.925Z,14.20
2022-12-23T01:34:46.356Z,14.06
2022-12-23T01:37:13.621Z,14.54
2022-12-23T01:39:41.179Z,14.69
2022-12-23T01:42:38.573Z,14.06
2022-12-23T01:45:25.900Z,14.29
2022-12-23T01:48:25.279Z,14.39
2022-12-23T01:51:03.889Z,14.81
2022-12-23T01:53:46.947Z,14.55
2022-12-23T01:56:41.514Z,14.80
2022-12-23T01:59:44.698Z,15.21
2022-12-23T02:02:30.678Z,15.18
2022-12-23T02:05:00.378Z,14.80
2022-12-23T02:07:47.662Z,14.83
2022-12-23T02:10:15.066Z,14.76
2022-12-23T02:13:00.532Z,14.77
2022-12-23T02:16:14.825Z,14.84
2022-12-23T02:19:06.798Z,14.96
2022-12-23T02:22:12.346Z,15.31
2022-12-23T02:25:24.751Z,15.34
2022-12-23T02:28:29.343Z,15.24
2022-12-23T02:31:11.255Z,15.09
2022-12-23T02:34:26.309Z,14.96
2022-12-23T02:37:55.734Z,15.30
2022-12-23T02:40:54.454Z,15.16
2022-12-23T02:43:36.354Z,15.14
2022-12-23T02:46:36.963Z,15.07
2022-12-23T02:49:27.164Z,14.99
2022-12-23T02:51:59.267Z,14.72
2022-12-23T02:54:40.501Z,14.86
2022-12-23T02:57:13.172Z,14.78
2022-12-23T02:59:51.856Z,14.65
2022-12-23T03:02:20.758Z,14.64
2022-12-23T03:04:48.263Z,14.51
2022-12-23T03:07:26.455Z,14.36
2022-12-23T03:10:10.719Z,14.23
2022-12-23T03:13:11.391Z,14.27
2022-12-23T03:16:08.313Z,14.24
2022-12-23T03:19:20.761Z,14.52
2022-12-23T03:22:37.786Z,14.14
2022-12-23T03:25:36.383Z,14.17
2022-12-23T03:28:40.414Z,14.24
2022-12-23T03:31:17.670Z,13.92
2022-12-23T03:33:54.061Z,14.51
2022-12-23T03:36:35.083Z,14.87
2022-12-23T03:39:11.293Z,14.68
2022-12-23T03:41:49.255Z,14.60
2022-12-23T03:44:29.032Z,14.38
2022-12-23T03:47:13.298Z,14.46
2022-12-23T03:49:51.417Z,14.43
2022-12-23T03:52:32.164Z,14.23
2022-12-23T03:55:07.251Z,14.18
2022-12-23T03:57:57.651Z,14.20
2022-12-23T04:00:31.864Z,13.98
2022-12-23T04:03:39.066Z,14.27
2022-12-23T04:06:14.740Z,14.46
2022-12-23T04:08:44.696Z,14.75
2022-12-23T04:11:13.061Z,14.83
2022-12-23T04:13:40.990Z,14.58
2022-12-23T04:16:08.657Z,14.75
2022-12-23T04:18:36.026Z,14.84
2022-12-23T04:21:04.009Z,14.48
2022-12-23T04:23:31.267Z,14.34
2022-12-23T04:25:58.788Z,14.63
2022-12-23T04:28:26.127Z,14.83
2022-12-23T04:30:53.915Z,14.74
2022-12-23T04:33:21.514Z,14.60
2022-12-23T04:35:48.835Z,14.63
2022-12-23T04:38:16.391Z,14.55
2022-12-23T04:40:47.643Z,14.57
2022-12-23T04:43:15.663Z,14.83
2022-12-23T04:45:43.126Z,14.82
2022-12-23T04:48:10.652Z,14.90
2022-12-23T04:50:37.862Z,14.79
2022-12-23T04:53:10.615Z,14.87
2022-12-23T04:55:38.460Z,14.88
2022-12-23T04:58:05.990Z,14.90
2022-12-23T05:00:39.203Z,15.13
2022-12-23T05:03:07.436Z,14.97
2022-12-23T05:05:34.841Z,14.81
2022-12-23T05:08:06.411Z,14.77
2022-12-23T05:10:33.880Z,15.13
2022-12-23T05:13:01.255Z,14.79
2022-12-23T05:15:28.866Z,14.60
2022-12-23T05:17:56.293Z,14.75
2022-12-23T05:20:23.600Z,14.54
2022-12-23T05:22:51.381Z,14.39
2022-12-23T05:25:18.710Z,14.48
2022-12-23T05:27:46.378Z,14.67
2022-12-23T05:30:14.098Z,14.77
2022-12-23T05:32:41.641Z,14.81
2022-12-23T05:35:10.557Z,14.86
2022-12-23T05:43:20.586Z,14.90
2022-12-23T05:45:49.870Z,14.78
2022-12-23T05:48:17.691Z,14.97
2022-12-23T05:50:44.933Z,14.76
2022-12-23T05:53:12.540Z,14.85
2022-12-23T05:55:39.981Z,14.93
2022-12-23T05:58:08.231Z,15.04
2022-12-23T06:00:35.657Z,15.22
2022-12-23T06:03:03.943Z,15.18
2022-12-23T06:05:31.467Z,15.02
2022-12-23T06:07:58.919Z,15.16
2022-12-23T06:10:26.191Z,14.61
2022-12-23T06:12:53.493Z,14.75
2022-12-23T06:15:21.171Z,14.74
2022-12-23T06:17:49.507Z,15.10
2022-12-23T06:20:20.731Z,15.08
2022-12-23T06:22:48.657Z,15.07
2022-12-23T06:25:16.535Z,14.97
2022-12-23T06:27:46.693Z,14.88
2022-12-23T06:30:14.863Z,14.97
2022-12-23T06:32:42.480Z,14.85
2022-12-23T06:35:10.466Z,15.04
2022-12-23T06:37:37.973Z,15.05
2022-12-23T06:40:06.641Z,15.02
2022-12-23T06:42:33.866Z,14.94
2022-12-23T06:45:01.077Z,15.01
2022-12-23T06:47:28.661Z,14.93
2022-12-23T06:49:56.015Z,14.83
2022-12-23T06:52:23.252Z,14.85
2022-12-23T06:54:50.515Z,14.91
2022-12-23T06:57:17.808Z,14.97
2022-12-23T06:59:45.369Z,14.90
2022-12-23T07:02:14.440Z,14.90
2022-12-23T07:04:42.681Z,14.98
2022-12-23T07:07:09.992Z,15.00
2022-12-23T07:09:38.867Z,14.99
2022-12-23T07:12:07.818Z,14.96
2022-12-23T07:14:35.153Z,14.94
2022-12-23T07:17:02.770Z,14.92
2022-12-23T07:19:30.417Z,14.91
2022-12-23T07:21:57.680Z,14.97
2022-12-23T07:24:25.078Z,15.18
2022-12-23T07:26:52.492Z,15.00
2022-12-23T07:29:19.891Z,15.09
2022-12-23T07:31:47.318Z,14.89
2022-12-23T07:34:14.717Z,14.81
2022-12-23T07:36:42.117Z,14.65
2022-12-23T07:39:09.635Z,14.68
2022-12-23T07:41:37.294Z,14.79
2022-12-23T07:44:08.800Z,14.97
2022-12-23T07:46:36.667Z,14.30
2022-12-23T07:49:04.314Z,14.56
2022-12-23T07:51:32.316Z,14.95
2022-12-23T07:53:59.887Z,14.75
2022-12-23T07:56:27.592Z,14.85
2022-12-23T07:58:55.325Z,14.74
2022-12-23T08:01:23.184Z,14.80
2022-12-23T08:03:50.888Z,14.85
2022-12-23T08:06:18.464Z,14.85
2022-12-23T08:08:46.903Z,15.07
2022-12-23T08:11:16.388Z,14.92
2022-12-23T08:13:48.359Z,14.95
2022-12-23T08:16:17.218Z,15.04
2022-12-23T08:18:44.773Z,15.11
2022-12-23T08:21:20.081Z,15.25
2022-12-23T08:23:48.658Z,15.08
2022-12-23T08:26:23.821Z,15.18
2022-12-23T08:28:55.260Z,15.34
2022-12-23T08:31:31.912Z,14.98
2022-12-23T08:34:02.225Z,15.32
2022-12-23T08:36:34.847Z,15.32
2022-12-23T08:39:09.296Z,15.28
2022-12-23T08:41:46.296Z,15.35
2022-12-23T08:44:15.058Z,15.39
2022-12-23T08:46:43.350Z,15.38
2022-12-23T08:49:11.694Z,15.24
2022-12-23T08:51:39.240Z,15.48
2022-12-23T08:54:06.931Z,15.63
2022-12-23T08:56:40.826Z,15.67
2022-12-23T08:59:19.421Z,15.52
2022-12-23T09:01:48.750Z,15.38
2022-12-23T09:04:17.084Z,15.33
2022-12-23T09:06:46.088Z,15.46
2022-12-23T09:09:16.092Z,15.40
2022-12-23T09:11:44.010Z,15.33
2022-12-23T09:14:11.660Z,15.41
2022-12-23T09:16:39.683Z,15.28
2022-12-23T09:19:08.054Z,14.99
2022-12-23T09:21:37.077Z,15.13
2022-12-23T09:24:05.020Z,15.26
2022-12-23T09:26:32.637Z,15.40
2022-12-23T09:29:00.230Z,15.45
2022-12-23T09:31:34.369Z,15.25
2022-12-23T09:34:06.612Z,15.28
2022-12-23T09:36:34.302Z,15.31
2022-12-23T09:39:01.657Z,15.17
2022-12-23T09:42:07.685Z,15.02
2022-12-23T09:45:14.643Z,15.55
2022-12-23T09:47:43.659Z,15.77
2022-12-23T09:50:34.333Z,15.65
2022-12-23T09:53:12.645Z,15.74
2022-12-23T09:56:01.693Z,15.97
2022-12-23T09:59:20.248Z,15.91
2022-12-23T10:02:06.879Z,15.76
2022-12-23T10:04:42.930Z,15.92
2022-12-23T10:07:40.480Z,16.13
2022-12-23T10:10:20.514Z,15.70
2022-12-23T10:12:53.389Z,15.57
2022-12-23T10:15:43.767Z,15.57
2022-12-23T10:18:42.290Z,15.47
2022-12-23T10:21:42.351Z,15.60
2022-12-23T10:24:38.085Z,15.37
2022-12-23T10:27:32.616Z,15.46
2022-12-23T10:30:42.596Z,15.77
2022-12-23T10:33:20.475Z,16.06
2022-12-23T10:36:29.580Z,15.90
2022-12-23T10:39:18.991Z,15.76
2022-12-23T10:42:13.240Z,16.02
2022-12-23T10:45:32.117Z,16.04
2022-12-23T10:48:49.961Z,16.54
2022-12-23T10:51:29.001Z,16.36
2022-12-23T10:54:08.826Z,16.45
2022-12-23T10:56:37.369Z,16.56
2022-12-23T10:59:07.528Z,16.69
2022-12-23T11:01:40.711Z,16.75
2022-12-23T11:04:32.885Z,16.96
2022-12-23T11:07:41.477Z,16.82
2022-12-23T11:10:07.735Z,16.79
2022-12-23T11:12:47.583Z,16.86
2022-12-23T11:15:38.444Z,16.73
2022-12-23T11:18:11.930Z,16.80
2022-12-23T11:20:43.325Z,16.85
2022-12-23T11:23:30.617Z,16.88
2022-12-23T11:26:08.205Z,16.79
2022-12-23T11:28:53.470Z,16.74
2022-12-23T11:31:39.619Z,16.82
2022-12-23T11:34:19.500Z,16.93
2022-12-23T11:37:05.413Z,16.96
2022-12-23T11:39:46.872Z,17.04
2022-12-23T11:42:27.203Z,17.03
2022-12-23T11:45:00.127Z,16.81
2022-12-23T11:47:39.692Z,16.77
2022-12-23T11:50:43.195Z,16.74
2022-12-23T11:53:22.769Z,16.33
2022-12-23T11:56:16.111Z,16.61
2022-12-23T11:59:05.605Z,16.80
2022-12-23T12:01:33.961Z,17.05
2022-12-23T12:04:22.087Z,16.72
2022-12-23T12:06:56.388Z,17.02
2022-12-23T12:09:25.525Z,16.63
2022-12-23T12:12:15.227Z,16.58
2022-12-23T12:14:48.971Z,16.32
2022-12-23T12:17:43.935Z,16.63
2022-12-23T12:20:31.938Z,16.79
2022-12-23T12:23:14.006Z,16.90
2022-12-23T12:26:00.462Z,17.03
2022-12-23T12:28:42.741Z,17.61
2022-12-23T12:31:42.152Z,17.19
2022-12-23T12:34:44.318Z,16.97
2022-12-23T12:37:53.721Z,16.82
2022-12-23T12:40:44.602Z,16.92
2022-12-23T12:43:35.256Z,16.97
2022-12-23T12:46:44.580Z,17.06
2022-12-23T12:49:51.437Z,17.05
2022-12-23T12:52:28.124Z,17.07
2022-12-23T12:55:23.615Z,17.09
2022-12-23T12:57:51.976Z,17.13
2022-12-23T13:00:24.636Z,17.00
2022-12-23T13:03:21.614Z,16.99
2022-12-23T13:06:48.454Z,16.96
2022-12-23T13:09:42.918Z,16.93
2022-12-23T13:12:46.455Z,16.96
2022-12-23T13:15:26.336Z,16.84
2022-12-23T13:18:48.303Z,16.93
2022-12-23T13:22:02.564Z,16.95
2022-12-23T13:25:04.351Z,17.01
2022-12-23T13:28:11.481Z,17.09
2022-12-23T13:30:55.792Z,17.13
2022-12-23T13:33:48.267Z,17.27
2022-12-23T13:36:57.412Z,17.15
2022-12-23T13:39:56.222Z,17.30
2022-12-23T13:42:39.661Z,17.25
2022-12-23T13:45:17.125Z,17.62
2022-12-23T13:48:19.751Z,17.51
2022-12-23T13:51:10.128Z,17.38
2022-12-23T13:54:11.707Z,17.68
2022-12-23T13:57:43.623Z,17.73
2022-12-23T14:00:17.148Z,17.43
2022-12-23T14:03:02.253Z,17.77
2022-12-23T14:05:39.009Z,17.84
2022-12-23T14:08:20.467Z,17.69
2022-12-23T14:11:33.973Z,17.38
2022-12-23T14:14:19.213Z,17.10
2022-12-23T14:17:26.065Z,17.14
2022-12-23T14:20:52.144Z,17.08
2022-12-23T14:23:41.164Z,17.49
2022-12-23T14:27:11.732Z,16.98
2022-12-23T14:30:32.415Z,17.15
2022-12-23T14:33:06.246Z,17.38
2022-12-23T14:35:40.217Z,17.46
2022-12-23T14:38:15.575Z,17.27
2022-12-23T14:40:46.236Z,17.24
2022-12-23T14:43:46.108Z,17.32
2022-12-23T14:46:35.655Z,17.41
2022-12-23T14:52:03.271Z,17.23
2022-12-23T14:54:39.875Z,17.26
2022-12-23T14:57:24.386Z,17.14
2022-12-23T15:00:02.875Z,17.34
2022-12-23T15:02:41.329Z,17.37
2022-12-23T15:05:09.909Z,17.31
2022-12-23T15:07:43.204Z,17.42
2022-12-23T15:10:23.049Z,17.32
2022-12-23T15:13:03.127Z,17.24
2022-12-23T15:15:32.752Z,17.43
2022-12-23T15:18:13.273Z,17.26
2022-12-23T15:20:40.940Z,17.47
2022-12-23T15:23:48.753Z,17.26
2022-12-23T15:26:17.253Z,17.31
2022-12-23T15:28:44.922Z,17.36
2022-12-23T15:31:40.545Z,17.35
2022-12-23T15:34:25.259Z,17.20
2022-12-23T15:36:56.582Z,16.98
2022-12-23T15:39:27.973Z,17.26
2022-12-23T15:41:57.584Z,17.46
2022-12-23T15:44:37.484Z,17.23
2022-12-23T15:47:30.838Z,17.08
2022-12-23T15:50:06.742Z,17.14
2022-12-23T15:52:34.346Z,17.40
2022-12-23T15:55:27.814Z,17.30
2022-12-23T15:58:00.536Z,17.40
2022-12-23T16:00:51.660Z,17.24
2022-12-23T16:03:32.230Z,17.49
2022-12-23T16:06:16.616Z,17.58
2022-12-23T16:08:45.291Z,17.59
2022-12-23T16:11:22.560Z,17.77
2022-12-23T16:14:44.502Z,17.92
2022-12-23T16:17:19.009Z,17.89
2022-12-23T16:19:54.580Z,17.97
2022-12-23T16:22:36.289Z,17.93
2022-12-23T16:25:25.220Z,17.89
2022-12-23T16:28:06.892Z,17.89
2022-12-23T16:30:38.002Z,18.03
2022-12-23T16:33:37.701Z,18.03
2022-12-23T16:36:36.759Z,17.88
2022-12-23T16:39:23.446Z,18.03
2022-12-23T16:41:51.225Z,18.27
2022-12-23T16:44:18.744Z,18.35
2022-12-23T16:46:51.417Z,18.35
2022-12-23T16:49:27.934Z,18.45
2022-12-23T16:51:57.712Z,18.55
2022-12-23T16:54:25.169Z,18.27
2022-12-23T16:56:52.729Z,18.40
2022-12-23T16:59:21.007Z,18.44
2022-12-23T17:01:49.545Z,17.95
2022-12-23T17:04:17.107Z,18.08
2022-12-23T17:06:46.423Z,17.78
2022-12-23T17:09:13.879Z,18.11
2022-12-23T17:11:51.083Z,17.82
2022-12-23T17:14:23.486Z,17.78
2022-12-23T17:16:52.494Z,17.89
2022-12-23T17:19:27.869Z,17.94
2022-12-23T17:22:02.859Z,18.08
2022-12-23T17:24:30.697Z,18.35
2022-12-23T17:26:58.629Z,17.97
2022-12-23T17:29:26.186Z,18.05
2022-12-23T17:31:54.379Z,18.06
2022-12-23T17:34:24.886Z,18.04
2022-12-23T17:36:53.115Z,17.91
2022-12-23T17:39:22.313Z,17.97
2022-12-23T17:41:50.013Z,17.92
2022-12-23T17:44:19.158Z,17.78
2022-12-23T17:46:46.922Z,17.95
2022-12-23T17:49:14.678Z,18.05
2022-12-23T17:51:43.283Z,17.98
2022-12-23T17:54:24.800Z,18.03
2022-12-23T17:56:53.144Z,18.11
2022-12-23T17:59:21.663Z,18.31
2022-12-23T18:01:50.955Z,18.01
2022-12-23T18:04:18.654Z,18.27
2022-12-23T18:06:45.918Z,18.13
2022-12-23T18:09:13.217Z,17.97
2022-12-23T18:11:46.770Z,17.98
2022-12-23T18:14:31.811Z,18.10
2022-12-23T18:16:59.657Z,17.52
2022-12-23T18:19:26.980Z,17.21
2022-12-23T18:21:54.268Z,16.94
2022-12-23T18:24:21.666Z,16.27
2022-12-23T18:26:49.190Z,16.48
2022-12-23T18:29:16.845Z,15.93
2022-12-23T18:31:52.112Z,16.27
2022-12-23T18:34:21.271Z,15.93
2022-12-23T18:36:51.666Z,15.94
2022-12-23T18:39:20.191Z,16.35
2022-12-23T18:41:47.749Z,16.38
2022-12-23T18:44:21.301Z,16.46
2022-12-23T18:46:50.569Z,16.40
2022-12-23T18:49:18.114Z,16.26
2022-12-23T18:51:46.203Z,16.36
2022-12-23T18:54:16.350Z,16.38
2022-12-23T18:56:44.553Z,16.32
2022-12-23T18:59:29.672Z,16.31
2022-12-23T19:01:58.493Z,16.43
2022-12-23T19:04:27.783Z,16.47
2022-12-23T19:06:56.842Z,16.32
2022-12-23T19:09:28.072Z,16.06
2022-12-23T19:12:08.947Z,16.11
2022-12-23T19:14:39.908Z,16.13
2022-12-23T19:17:07.754Z,16.40
2022-12-23T19:19:35.440Z,16.25
2022-12-23T19:22:02.869Z,16.38
2022-12-23T19:24:30.443Z,16.30
2022-12-23T19:27:00.390Z,16.08
2022-12-23T19:29:27.905Z,16.12
2022-12-23T19:31:55.386Z,16.23
2022-12-23T19:34:23.064Z,16.23
2022-12-23T19:36:50.474Z,16.09
2022-12-23T19:39:21.923Z,16.20
2022-12-23T19:41:49.621Z,16.09
2022-12-23T19:44:16.830Z,16.13
2022-12-23T19:46:44.477Z,16.14
2022-12-23T19:49:19.156Z,16.34
2022-12-23T19:51:48.534Z,16.31
2022-12-23T19:54:18.380Z,16.46
2022-12-23T19:56:49.896Z,16.31
2022-12-23T19:59:17.804Z,16.11
2022-12-23T20:01:45.929Z,16.13
2022-12-23T20:04:13.560Z,16.28
2022-12-23T20:06:42.415Z,16.03
2022-12-23T20:09:13.455Z,16.30
2022-12-23T20:11:46.587Z,16.15
2022-12-23T20:14:18.564Z,16.07
2022-12-23T20:16:48.583Z,16.11
2022-12-23T20:19:17.137Z,16.18
2022-12-23T20:21:48.105Z,16.03
2022-12-23T20:24:16.406Z,16.05
2022-12-23T20:26:44.366Z,16.04
2022-12-23T20:29:12.116Z,16.15
2022-12-23T20:31:41.029Z,16.09
2022-12-23T20:34:15.995Z,16.14
2022-12-23T20:36:44.019Z,15.96
2022-12-23T20:39:11.484Z,15.81
2022-12-23T20:41:38.887Z,15.75
2022-12-23T20:46:54.141Z,16.11
2022-12-23T20:49:21.541Z,16.11
2022-12-23T20:51:48.874Z,16.04
2022-12-23T20:54:16.335Z,15.96
2022-12-23T20:56:43.775Z,15.81
2022-12-23T20:59:11.453Z,15.82
2022-12-23T21:01:41.839Z,15.73
2022-12-23T21:04:15.845Z,15.79
2022-12-23T21:06:44.891Z,15.64
2022-12-23T21:09:15.065Z,15.68
2022-12-23T21:11:46.527Z,15.66
2022-12-23T21:14:17.515Z,15.60
2022-12-23T21:16:45.232Z,15.84
2022-12-23T21:19:21.969Z,15.97
2022-12-23T21:21:51.586Z,15.81
2022-12-23T21:24:21.240Z,15.78
2022-12-23T21:26:55.415Z,15.42
2022-12-23T21:29:24.601Z,15.30
2022-12-23T21:31:52.559Z,15.25
2022-12-23T21:34:20.033Z,15.02
2022-12-23T21:36:47.403Z,14.94
2022-12-23T21:39:16.819Z,15.04
2022-12-23T21:41:44.330Z,14.96
2022-12-23T21:44:15.703Z,15.26
2022-12-23T21:46:43.606Z,15.06
2022-12-23T21:49:11.587Z,14.80
2022-12-23T21:51:41.098Z,14.80
2022-12-23T21:54:11.886Z,14.87
2022-12-23T21:56:41.560Z,14.88
2022-12-23T21:59:14.368Z,14.83
2022-12-23T22:01:43.964Z,14.72
2022-12-23T22:04:12.151Z,14.58
2022-12-23T22:06:44.316Z,14.40
2022-12-23T22:09:17.886Z,14.64
2022-12-23T22:11:46.594Z,14.66
2022-12-23T22:14:18.642Z,14.71
2022-12-23T22:16:46.259Z,14.55
2022-12-23T22:19:14.044Z,14.57
2022-12-23T22:21:42.968Z,14.51
2022-12-23T22:24:11.087Z,14.32
2022-12-23T22:26:40.931Z,14.21
2022-12-23T22:29:08.395Z,14.23
2022-12-23T22:31:53.220Z,13.99
2022-12-23T22:34:23.222Z,14.14
2022-12-23T22:36:51.325Z,14.16
2022-12-23T22:39:21.801Z,14.29
2022-12-23T22:41:53.095Z,14.14
2022-12-23T22:44:21.274Z,13.78
2022-12-23T22:46:49.533Z,13.55
2022-12-23T22:49:17.688Z,13.46
2022-12-23T22:51:45.841Z,13.56
2022-12-23T22:54:13.328Z,13.58
2022-12-23T22:56:40.741Z,13.91
2022-12-23T22:59:19.848Z,13.66
2022-12-23T23:01:50.121Z,13.69
2022-12-23T23:04:17.739Z,13.60
2022-12-23T23:06:45.169Z,13.49
2022-12-23T23:09:17.823Z,13.16
2022-12-23T23:11:46.013Z,13.50
2022-12-23T23:14:13.878Z,13.81
2022-12-23T23:16:41.364Z,14.07
2022-12-23T23:19:10.335Z,13.70
2022-12-23T23:21:38.025Z,13.62
2022-12-23T23:24:06.570Z,13.46
2022-12-23T23:26:34.153Z,13.33
2022-12-23T23:29:01.691Z,13.18
2022-12-23T23:31:45.548Z,13.22
2022-12-23T23:34:13.662Z,13.03
2022-12-23T23:36:42.145Z,13.40
2022-12-23T23:39:12.442Z,13.74
2022-12-23T23:41:41.079Z,14.16
2022-12-23T23:44:08.836Z,13.81
2022-12-23T23:46:36.263Z,13.51
2022-12-23T23:49:03.930Z,13.33
2022-12-23T23:51:31.519Z,13.28
2022-12-23T23:53:58.996Z,13.28
2022-12-23T23:56:28.837Z,13.56
2022-12-23T23:58:59.976Z,13.53
